createdAt,value
2023-03-06T00:00:27.038Z,66.83
2023-03-06T00:02:53.563Z,66.56
2023-03-06T00:05:20.097Z,66.72
2023-03-06T00:07:46.690Z,66.65
2023-03-06T00:10:18.995Z,66.87
2023-03-06T00:12:45.496Z,67.28
2023-03-06T00:15:12.935Z,66.84
2023-03-06T00:17:40.025Z,67.82
2023-03-06T00:20:07.695Z,68.08
2023-03-06T00:22:34.331Z,67.04
2023-03-06T00:25:00.644Z,67.08
2023-03-06T00:27:27.012Z,67.20
2023-03-06T00:29:57.875Z,67.37
2023-03-06T00:32:24.676Z,66.75
2023-03-06T00:34:54.446Z,66.61
2023-03-06T00:37:23.506Z,66.84
2023-03-06T00:39:50.469Z,67.16
2023-03-06T00:42:17.711Z,67.45
2023-03-06T00:44:44.523Z,67.30
2023-03-06T00:47:11.171Z,68.02
2023-03-06T00:49:37.479Z,67.43
2023-03-06T00:52:04.220Z,67.48
2023-03-06T00:54:30.670Z,67.53
2023-03-06T00:56:56.942Z,67.23
2023-03-06T00:59:23.334Z,67.54
2023-03-06T01:01:49.626Z,67.31
2023-03-06T01:04:15.914Z,67.62
2023-03-06T01:06:42.320Z,67.95
2023-03-06T01:09:08.623Z,67.13
2023-03-06T01:11:35.034Z,67.83
2023-03-06T01:14:01.613Z,67.76
2023-03-06T01:16:27.976Z,68.15
2023-03-06T01:18:54.393Z,68.06
2023-03-06T01:21:20.688Z,67.33
2023-03-06T01:23:47.188Z,67.72
2023-03-06T01:26:14.659Z,68.11
2023-03-06T01:28:41.045Z,69.16
2023-03-06T01:31:09.130Z,68.44
2023-03-06T01:33:36.265Z,68.88
2023-03-06T01:36:07.919Z,68.13
2023-03-06T01:38:35.736Z,68.21
2023-03-06T01:41:03.249Z,68.80
2023-03-06T01:43:33.051Z,69.69
2023-03-06T01:46:22.612Z,69.87
2023-03-06T01:48:52.090Z,68.87
2023-03-06T01:51:18.549Z,68.81
2023-03-06T01:53:46.064Z,69.05
2023-03-06T01:56:14.020Z,69.13
2023-03-06T01:58:42.360Z,68.81
2023-03-06T02:01:10.557Z,69.21
2023-03-06T02:03:37.697Z,69.00
2023-03-06T02:06:04.102Z,68.76
2023-03-06T02:08:31.399Z,70.10
2023-03-06T02:11:05.769Z,69.02
2023-03-06T02:13:32.333Z,68.61
2023-03-06T02:15:58.979Z,70.04
2023-03-06T02:18:25.666Z,68.90
2023-03-06T02:20:55.098Z,68.66
2023-03-06T02:23:38.613Z,68.44
2023-03-06T02:26:06.852Z,68.84
2023-03-06T02:28:33.240Z,68.72
2023-03-06T02:30:59.704Z,68.71
2023-03-06T02:33:28.045Z,68.38
2023-03-06T02:36:06.701Z,69.41
2023-03-06T02:38:39.130Z,68.37
2023-03-06T02:41:08.705Z,68.56
2023-03-06T02:43:39.533Z,68.24
2023-03-06T02:46:06.644Z,68.60
2023-03-06T02:48:33.045Z,68.65
2023-03-06T02:50:59.485Z,68.57
2023-03-06T02:53:25.918Z,68.40
2023-03-06T02:55:52.212Z,68.37
2023-03-06T02:58:18.944Z,68.07
2023-03-06T03:00:45.825Z,67.83
2023-03-06T03:03:12.655Z,67.71
2023-03-06T03:05:38.967Z,67.49
2023-03-06T03:08:05.668Z,68.09
2023-03-06T03:10:32.133Z,69.13
2023-03-06T03:12:58.898Z,68.04
2023-03-06T03:15:25.542Z,68.30
2023-03-06T03:17:51.827Z,68.27
2023-03-06T03:20:19.933Z,68.89
2023-03-06T03:22:51.018Z,68.69
2023-03-06T03:25:18.246Z,68.60
2023-03-06T03:27:44.559Z,68.76
2023-03-06T03:30:11.663Z,68.59
2023-03-06T03:32:38.078Z,68.95
2023-03-06T03:35:06.039Z,68.60
2023-03-06T03:37:32.371Z,68.55
2023-03-06T03:39:59.178Z,69.34
2023-03-06T03:42:25.461Z,69.08
2023-03-06T03:44:51.829Z,68.54
2023-03-06T03:47:18.125Z,68.62
2023-03-06T03:49:44.595Z,68.75
2023-03-06T03:52:10.970Z,68.83
2023-03-06T03:54:37.285Z,69.22
2023-03-06T03:57:03.706Z,70.11
2023-03-06T03:59:30.075Z,69.60
2023-03-06T04:01:56.506Z,69.73
2023-03-06T04:04:22.920Z,69.65
2023-03-06T04:06:49.346Z,69.78
2023-03-06T04:09:15.649Z,70.11
2023-03-06T04:11:41.971Z,70.56
2023-03-06T04:14:08.396Z,69.63
2023-03-06T04:16:34.732Z,70.38
2023-03-06T04:19:01.048Z,70.39
2023-03-06T04:21:29.003Z,70.39
2023-03-06T04:23:55.334Z,70.35
2023-03-06T04:26:21.704Z,70.67
2023-03-06T04:28:47.998Z,70.40
2023-03-06T04:31:14.451Z,69.92
2023-03-06T04:33:40.880Z,69.86
2023-03-06T04:36:07.506Z,69.75
2023-03-06T04:38:33.852Z,69.82
2023-03-06T04:41:00.302Z,70.14
2023-03-06T04:43:26.652Z,70.32
2023-03-06T04:45:53.028Z,70.78
2023-03-06T04:48:19.397Z,70.47
2023-03-06T04:50:46.085Z,70.91
2023-03-06T04:53:12.555Z,70.73
2023-03-06T04:55:38.857Z,70.48
2023-03-06T04:58:05.278Z,70.90
2023-03-06T05:00:31.845Z,71.27
2023-03-06T05:03:00.143Z,71.12
2023-03-06T05:05:27.360Z,71.49
2023-03-06T05:07:54.329Z,71.87
2023-03-06T05:10:21.033Z,72.34
2023-03-06T05:12:47.463Z,71.42
2023-03-06T05:15:14.537Z,71.46
2023-03-06T05:17:41.253Z,71.68
2023-03-06T05:20:11.423Z,71.69
2023-03-06T05:22:37.753Z,72.33
2023-03-06T05:25:04.538Z,72.96
2023-03-06T05:27:31.166Z,71.38
2023-03-06T05:29:57.843Z,71.17
2023-03-06T05:32:24.199Z,70.90
2023-03-06T05:34:50.848Z,70.96
2023-03-06T05:37:17.268Z,70.95
2023-03-06T05:39:43.818Z,71.30
2023-03-06T05:42:10.132Z,71.38
2023-03-06T05:44:36.683Z,71.31
2023-03-06T05:47:03.578Z,71.36
2023-03-06T05:49:35.350Z,70.98
2023-03-06T05:52:03.736Z,70.46
2023-03-06T05:54:31.497Z,70.54
2023-03-06T05:56:57.802Z,70.52
2023-03-06T05:59:25.090Z,70.52
2023-03-06T06:01:51.489Z,70.75
2023-03-06T06:04:17.798Z,70.66
2023-03-06T06:06:44.194Z,70.42
2023-03-06T06:09:12.315Z,70.25
2023-03-06T06:11:40.094Z,70.31
2023-03-06T06:14:06.496Z,70.67
2023-03-06T06:16:32.850Z,70.68
2023-03-06T06:18:59.275Z,70.40
2023-03-06T06:21:25.709Z,70.01
2023-03-06T06:23:51.988Z,70.46
2023-03-06T06:26:18.287Z,69.99
2023-03-06T06:28:44.594Z,70.11
2023-03-06T06:31:12.642Z,70.17
2023-03-06T06:33:40.340Z,69.87
2023-03-06T06:36:15.736Z,69.64
2023-03-06T06:38:42.136Z,70.02
2023-03-06T06:43:55.759Z,69.74
2023-03-06T06:47:05.815Z,69.95
2023-03-06T06:49:09.641Z,69.91
2023-03-06T06:51:35.988Z,71.66
2023-03-06T06:54:02.276Z,71.28
2023-03-06T06:56:28.750Z,70.59
2023-03-06T06:59:01.350Z,70.60
2023-03-06T07:01:36.823Z,71.22
2023-03-06T07:04:03.186Z,70.26
2023-03-06T07:06:29.576Z,69.64
2023-03-06T07:08:56.664Z,69.59
2023-03-06T07:11:23.930Z,68.79
2023-03-06T07:13:50.255Z,68.16
2023-03-06T07:16:16.804Z,68.38
2023-03-06T07:18:43.772Z,68.05
2023-03-06T07:21:10.113Z,66.98
2023-03-06T07:23:36.420Z,66.67
2023-03-06T07:26:02.732Z,67.46
2023-03-06T07:28:29.042Z,67.81
2023-03-06T07:30:55.957Z,66.96
2023-03-06T07:33:22.433Z,67.13
2023-03-06T07:35:48.810Z,66.48
2023-03-06T07:38:15.198Z,65.09
2023-03-06T07:40:41.672Z,66.37
2023-03-06T07:43:18.761Z,66.08
2023-03-06T07:45:45.946Z,66.17
2023-03-06T07:48:13.609Z,66.19
2023-03-06T07:50:40.206Z,65.04
2023-03-06T07:53:06.508Z,64.71
2023-03-06T07:55:32.829Z,64.91
2023-03-06T07:57:59.160Z,64.88
2023-03-06T08:00:25.569Z,65.11
2023-03-06T08:02:51.957Z,62.58
2023-03-06T08:05:18.644Z,63.26
2023-03-06T08:07:45.532Z,65.18
2023-03-06T08:10:15.075Z,64.06
2023-03-06T08:12:41.649Z,63.15
2023-03-06T08:15:10.138Z,63.71
2023-03-06T08:17:36.779Z,63.90
2023-03-06T08:20:03.814Z,62.52
2023-03-06T08:22:30.112Z,63.60
2023-03-06T08:24:57.249Z,63.75
2023-03-06T08:27:23.735Z,63.19
2023-03-06T08:29:50.054Z,61.67
2023-03-06T08:32:16.418Z,61.77
2023-03-06T08:34:42.770Z,60.07
2023-03-06T08:37:09.103Z,60.96
2023-03-06T08:39:35.397Z,60.87
2023-03-06T08:42:01.739Z,60.86
2023-03-06T08:44:28.030Z,60.73
2023-03-06T08:46:54.327Z,61.40
2023-03-06T08:49:20.864Z,60.97
2023-03-06T08:51:47.270Z,60.58
2023-03-06T08:54:13.765Z,60.43
2023-03-06T08:56:40.278Z,60.84
2023-03-06T08:59:06.837Z,60.59
2023-03-06T09:01:36.205Z,59.43
2023-03-06T09:04:04.922Z,59.07
2023-03-06T09:06:34.290Z,58.29
2023-03-06T09:09:00.757Z,58.32
2023-03-06T09:11:28.067Z,59.15
2023-03-06T09:13:54.790Z,58.12
2023-03-06T09:16:21.714Z,58.50
2023-03-06T09:18:48.088Z,59.25
2023-03-06T09:21:14.456Z,56.97
2023-03-06T09:23:40.822Z,57.35
2023-03-06T09:26:07.986Z,56.98
2023-03-06T09:28:38.928Z,56.65
2023-03-06T09:31:15.157Z,56.68
2023-03-06T09:33:41.917Z,57.47
2023-03-06T09:36:14.141Z,56.32
2023-03-06T09:38:40.445Z,56.64
2023-03-06T09:41:22.045Z,56.46
2023-03-06T09:43:51.385Z,55.86
2023-03-06T09:46:42.622Z,55.03
2023-03-06T09:49:42.492Z,55.87
2023-03-06T09:52:27.475Z,56.31
2023-03-06T09:55:00.842Z,54.02
2023-03-06T09:57:38.101Z,53.96
2023-03-06T10:00:11.766Z,55.16
2023-03-06T10:02:41.192Z,53.54
2023-03-06T10:05:26.081Z,55.09
2023-03-06T10:08:01.771Z,55.61
2023-03-06T10:10:40.717Z,55.87
2023-03-06T10:13:20.660Z,55.71
2023-03-06T10:15:48.021Z,56.48
2023-03-06T10:18:14.520Z,57.52
2023-03-06T10:20:45.702Z,57.61
2023-03-06T10:23:18.172Z,58.64
2023-03-06T10:25:53.409Z,58.14
2023-03-06T10:28:44.113Z,58.51
2023-03-06T10:31:20.187Z,57.83
2023-03-06T10:34:14.221Z,56.59
2023-03-06T10:36:40.532Z,57.37
2023-03-06T10:39:15.296Z,56.31
2023-03-06T10:41:41.590Z,55.66
2023-03-06T10:44:07.858Z,55.94
2023-03-06T10:46:37.041Z,55.47
2023-03-06T10:49:25.242Z,55.14
2023-03-06T10:52:19.905Z,55.74
2023-03-06T10:54:46.585Z,55.58
2023-03-06T10:57:30.609Z,55.89
2023-03-06T11:00:02.606Z,56.10
2023-03-06T11:02:32.287Z,56.09
2023-03-06T11:05:01.039Z,57.24
2023-03-06T11:07:35.186Z,58.12
2023-03-06T11:10:16.014Z,57.86
2023-03-06T11:12:43.278Z,58.32
2023-03-06T11:15:15.343Z,58.91
2023-03-06T11:17:57.512Z,58.71
2023-03-06T11:20:52.100Z,58.25
2023-03-06T11:23:36.561Z,59.03
2023-03-06T11:26:18.124Z,59.67
2023-03-06T11:29:17.723Z,59.07
2023-03-06T11:31:51.432Z,58.99
2023-03-06T11:34:20.558Z,58.46
2023-03-06T11:37:07.827Z,58.77
2023-03-06T11:39:43.089Z,58.03
2023-03-06T11:43:01.240Z,58.91
2023-03-06T11:45:34.332Z,58.95
2023-03-06T11:48:15.708Z,59.48
2023-03-06T11:50:48.062Z,60.17
2023-03-06T11:53:32.179Z,58.38
2023-03-06T11:56:20.211Z,58.90
2023-03-06T11:59:14.440Z,58.43
2023-03-06T12:02:09.156Z,58.54
2023-03-06T12:04:44.885Z,59.11
2023-03-06T12:07:35.644Z,58.85
2023-03-06T12:10:19.316Z,57.04
2023-03-06T12:13:05.750Z,57.31
2023-03-06T12:16:15.502Z,56.39
2023-03-06T12:18:52.739Z,57.22
2023-03-06T12:21:37.777Z,56.73
2023-03-06T12:24:30.986Z,56.40
2023-03-06T12:27:17.153Z,56.33
2023-03-06T12:29:58.393Z,56.21
2023-03-06T12:32:43.509Z,55.16
2023-03-06T12:35:36.928Z,55.00
2023-03-06T12:38:18.938Z,54.96
2023-03-06T12:41:04.282Z,55.04
2023-03-06T12:43:33.656Z,54.97
2023-03-06T12:46:09.414Z,53.42
2023-03-06T12:48:37.483Z,52.74
2023-03-06T12:51:07.491Z,51.59
2023-03-06T12:53:35.575Z,51.29
2023-03-06T12:56:03.106Z,52.41
2023-03-06T12:58:29.375Z,53.24
2023-03-06T13:01:04.145Z,53.40
2023-03-06T13:04:02.890Z,53.76
2023-03-06T13:06:53.730Z,52.95
2023-03-06T13:09:48.982Z,52.51
2023-03-06T13:12:47.044Z,53.05
2023-03-06T13:15:32.276Z,53.22
2023-03-06T13:17:59.080Z,53.87
2023-03-06T13:20:34.651Z,53.12
2023-03-06T13:23:28.952Z,52.92
2023-03-06T13:25:56.287Z,53.33
2023-03-06T13:28:38.852Z,52.57
2023-03-06T13:31:07.372Z,53.51
2023-03-06T13:33:36.890Z,52.52
2023-03-06T13:36:32.086Z,52.56
2023-03-06T13:39:01.953Z,51.27
2023-03-06T13:41:31.277Z,51.38
2023-03-06T13:43:59.708Z,52.37
2023-03-06T13:46:32.091Z,51.19
2023-03-06T13:49:07.459Z,51.59
2023-03-06T13:52:02.805Z,51.51
2023-03-06T13:54:35.833Z,51.05
2023-03-06T13:57:08.124Z,51.31
2023-03-06T14:00:08.926Z,49.88
2023-03-06T14:02:54.479Z,51.34
2023-03-06T14:05:21.737Z,51.58
2023-03-06T14:08:02.482Z,51.94
2023-03-06T14:10:33.286Z,51.86
2023-03-06T14:13:15.516Z,52.10
2023-03-06T14:15:48.562Z,52.94
2023-03-06T14:18:19.987Z,53.67
2023-03-06T14:20:51.278Z,53.35
2023-03-06T14:23:37.470Z,53.86
2023-03-06T14:26:16.466Z,53.07
2023-03-06T14:28:52.121Z,53.73
2023-03-06T14:31:21.108Z,54.35
2023-03-06T14:33:55.636Z,54.01
2023-03-06T14:36:26.016Z,55.39
2023-03-06T14:38:59.295Z,55.16
2023-03-06T14:41:27.023Z,56.03
2023-03-06T14:44:23.760Z,56.87
2023-03-06T14:46:55.391Z,56.05
2023-03-06T14:49:24.020Z,56.68
2023-03-06T14:51:53.041Z,56.54
2023-03-06T14:54:27.913Z,56.75
2023-03-06T14:57:01.265Z,55.99
2023-03-06T14:59:30.512Z,56.09
2023-03-06T15:02:01.068Z,55.90
2023-03-06T15:04:46.095Z,55.39
2023-03-06T15:07:25.504Z,55.03
2023-03-06T15:09:54.229Z,55.29
2023-03-06T15:12:20.505Z,55.88
2023-03-06T15:14:49.298Z,55.32
2023-03-06T15:17:18.661Z,55.26
2023-03-06T15:19:47.155Z,55.28
2023-03-06T15:22:26.864Z,55.05
2023-03-06T15:24:54.198Z,55.29
2023-03-06T15:27:29.634Z,55.15
2023-03-06T15:30:22.706Z,55.03
2023-03-06T15:32:49.323Z,55.13
2023-03-06T15:35:24.429Z,55.70
2023-03-06T15:37:51.385Z,54.81
2023-03-06T15:40:23.224Z,56.23
2023-03-06T15:42:49.900Z,56.23
2023-03-06T15:45:21.896Z,57.86
2023-03-06T15:47:50.530Z,57.28
2023-03-06T15:50:28.186Z,58.40
2023-03-06T15:52:54.800Z,58.26
2023-03-06T15:55:24.712Z,58.63
2023-03-06T15:57:56.886Z,58.55
2023-03-06T16:00:29.424Z,58.13
2023-03-06T16:02:57.084Z,59.51
2023-03-06T16:05:24.343Z,60.70
2023-03-06T16:07:50.807Z,61.27
2023-03-06T16:10:19.562Z,61.73
2023-03-06T16:12:49.857Z,63.70
2023-03-06T16:15:47.319Z,64.36
2023-03-06T16:18:13.720Z,63.33
2023-03-06T16:20:40.093Z,64.03
2023-03-06T16:23:06.463Z,63.09
2023-03-06T16:25:32.815Z,63.87
2023-03-06T16:27:59.228Z,63.66
2023-03-06T16:30:27.969Z,64.36
2023-03-06T16:32:54.557Z,63.50
2023-03-06T16:35:21.280Z,63.22
2023-03-06T16:37:47.833Z,63.43
2023-03-06T16:40:16.989Z,64.24
2023-03-06T16:42:43.348Z,63.42
2023-03-06T16:45:10.485Z,63.66
2023-03-06T16:47:36.908Z,64.36
2023-03-06T16:50:04.175Z,64.70
2023-03-06T16:52:30.527Z,64.13
2023-03-06T16:54:56.926Z,64.01
2023-03-06T16:57:23.229Z,64.29
2023-03-06T16:59:49.566Z,63.68
2023-03-06T17:02:15.882Z,65.48
2023-03-06T17:04:42.233Z,64.35
2023-03-06T17:07:08.530Z,65.55
2023-03-06T17:09:34.841Z,66.14
2023-03-06T17:12:01.211Z,66.35
2023-03-06T17:14:27.626Z,65.09
2023-03-06T17:16:53.920Z,66.14
2023-03-06T17:19:20.261Z,66.04
2023-03-06T17:21:46.569Z,66.52
2023-03-06T17:24:12.877Z,65.40
2023-03-06T17:26:39.241Z,65.10
2023-03-06T17:29:07.111Z,66.37
2023-03-06T17:31:33.600Z,65.19
2023-03-06T17:33:59.981Z,65.96
2023-03-06T17:36:27.433Z,65.46
2023-03-06T17:38:58.318Z,66.05
2023-03-06T17:41:24.915Z,65.19
2023-03-06T17:43:52.396Z,66.41
2023-03-06T17:46:19.028Z,66.81
2023-03-06T17:48:45.762Z,65.83
2023-03-06T17:51:12.583Z,66.19
2023-03-06T17:53:39.885Z,66.43
2023-03-06T17:56:12.623Z,66.23
2023-03-06T18:01:18.069Z,67.24
2023-03-06T18:03:46.361Z,66.29
2023-03-06T18:06:12.903Z,66.64
2023-03-06T18:08:39.593Z,66.17
2023-03-06T18:11:07.592Z,66.28
2023-03-06T18:13:37.037Z,66.31
2023-03-06T18:16:04.303Z,66.87
2023-03-06T18:18:31.049Z,66.68
2023-03-06T18:20:57.428Z,66.50
2023-03-06T18:23:23.719Z,66.56
2023-03-06T18:25:50.339Z,67.12
2023-03-06T18:28:16.633Z,66.78
2023-03-06T18:30:42.935Z,66.73
2023-03-06T18:33:09.684Z,66.66
2023-03-06T18:35:36.546Z,66.62
2023-03-06T18:38:02.973Z,67.27
2023-03-06T18:40:29.287Z,67.25
2023-03-06T18:42:55.594Z,67.58
2023-03-06T18:45:21.942Z,67.92
2023-03-06T18:47:48.244Z,67.84
2023-03-06T18:50:14.703Z,67.74
2023-03-06T18:52:41.002Z,68.71
2023-03-06T18:55:07.583Z,68.77
2023-03-06T18:57:33.981Z,68.30
2023-03-06T19:00:00.664Z,69.31
2023-03-06T19:02:27.081Z,69.23
2023-03-06T19:04:53.435Z,69.21
2023-03-06T19:07:19.786Z,69.05
2023-03-06T19:09:48.496Z,68.75
2023-03-06T19:12:14.895Z,69.39
2023-03-06T19:14:41.235Z,69.72
2023-03-06T19:17:07.590Z,68.44
2023-03-06T19:19:34.000Z,69.34
2023-03-06T19:22:00.479Z,69.48
2023-03-06T19:24:26.999Z,69.43
2023-03-06T19:26:53.515Z,69.54
2023-03-06T19:29:19.996Z,69.55
2023-03-06T19:31:46.569Z,69.90
2023-03-06T19:34:12.906Z,69.77
2023-03-06T19:36:39.183Z,69.30
2023-03-06T19:39:06.751Z,69.40
2023-03-06T19:41:33.981Z,68.92
2023-03-06T19:44:01.267Z,69.31
2023-03-06T19:46:27.995Z,70.20
2023-03-06T19:48:56.066Z,69.89
2023-03-06T19:51:22.814Z,69.53
2023-03-06T19:53:49.152Z,69.57
2023-03-06T19:56:21.225Z,70.18
2023-03-06T19:58:47.723Z,70.65
2023-03-06T20:01:17.149Z,71.53
2023-03-06T20:03:44.132Z,69.53
2023-03-06T20:06:13.817Z,70.16
2023-03-06T20:08:40.144Z,70.42
2023-03-06T20:11:06.560Z,71.07
2023-03-06T20:13:32.904Z,69.60
2023-03-06T20:16:02.719Z,69.95
2023-03-06T20:18:29.065Z,69.58
2023-03-06T20:21:04.009Z,69.32
2023-03-06T20:23:31.553Z,70.00
2023-03-06T20:26:02.634Z,69.79
2023-03-06T20:28:28.992Z,69.49
2023-03-06T20:30:55.308Z,69.55
2023-03-06T20:33:21.739Z,69.63
2023-03-06T20:35:48.064Z,69.57
2023-03-06T20:38:14.489Z,69.11
2023-03-06T20:40:42.173Z,69.78
2023-03-06T20:43:08.706Z,69.49
2023-03-06T20:45:35.129Z,70.04
2023-03-06T20:48:01.549Z,69.58
2023-03-06T20:50:27.904Z,69.45
2023-03-06T20:52:55.677Z,70.14
2023-03-06T20:55:22.327Z,71.33
2023-03-06T20:57:49.912Z,69.90
2023-03-06T21:00:17.808Z,70.15
2023-03-06T21:02:44.722Z,69.56
2023-03-06T21:05:11.102Z,69.68
2023-03-06T21:07:37.587Z,69.69
2023-03-06T21:10:04.432Z,69.62
2023-03-06T21:12:30.749Z,69.26
2023-03-06T21:14:57.056Z,68.71
2023-03-06T21:17:23.423Z,69.79
2023-03-06T21:19:49.731Z,70.14
2023-03-06T21:22:16.169Z,69.57
2023-03-06T21:24:42.480Z,70.08
2023-03-06T21:27:08.786Z,69.63
2023-03-06T21:29:35.266Z,69.75
2023-03-06T21:32:01.623Z,69.07
2023-03-06T21:34:27.970Z,68.70
2023-03-06T21:36:54.310Z,69.29
2023-03-06T21:39:20.615Z,69.49
2023-03-06T21:41:46.943Z,68.67
2023-03-06T21:44:13.274Z,69.08
2023-03-06T21:46:39.640Z,69.82
2023-03-06T21:49:05.980Z,69.07
2023-03-06T21:51:32.423Z,69.43
2023-03-06T21:53:58.726Z,68.74
2023-03-06T21:56:25.518Z,69.57
2023-03-06T21:58:52.004Z,69.09
2023-03-06T22:01:22.506Z,68.84
2023-03-06T22:03:48.900Z,68.59
2023-03-06T22:06:21.504Z,68.52
2023-03-06T22:08:47.948Z,68.82
2023-03-06T22:11:16.983Z,68.70
2023-03-06T22:13:44.423Z,68.21
2023-03-06T22:16:11.806Z,67.89
2023-03-06T22:18:38.217Z,68.65
2023-03-06T22:21:09.052Z,67.80
2023-03-06T22:23:35.691Z,68.56
2023-03-06T22:26:03.777Z,67.87
2023-03-06T22:28:30.092Z,67.88
2023-03-06T22:31:02.893Z,68.40
2023-03-06T22:33:29.194Z,67.84
2023-03-06T22:35:59.888Z,68.42
2023-03-06T22:38:26.300Z,68.27
2023-03-06T22:40:56.474Z,68.21
2023-03-06T22:43:22.851Z,67.45
2023-03-06T22:45:49.203Z,67.96
2023-03-06T22:48:15.538Z,67.18
2023-03-06T22:50:41.868Z,67.87
2023-03-06T22:53:08.164Z,67.26
2023-03-06T22:55:35.330Z,67.31
2023-03-06T22:58:02.008Z,67.49
2023-03-06T23:00:28.493Z,67.54
2023-03-06T23:02:54.883Z,67.29
2023-03-06T23:05:21.621Z,67.38
2023-03-06T23:07:48.220Z,67.35
2023-03-06T23:10:14.495Z,67.00
2023-03-06T23:12:40.919Z,67.04
2023-03-06T23:15:07.797Z,66.95
2023-03-06T23:17:34.414Z,67.51
2023-03-06T23:20:00.730Z,67.18
2023-03-06T23:22:27.022Z,67.83
2023-03-06T23:24:53.395Z,68.12
2023-03-06T23:27:19.675Z,67.84
2023-03-06T23:29:49.674Z,67.80
2023-03-06T23:32:16.029Z,67.60
2023-03-06T23:34:42.574Z,68.09
2023-03-06T23:37:08.901Z,67.77
2023-03-06T23:39:35.333Z,67.72
2023-03-06T23:42:01.807Z,68.09
2023-03-06T23:44:28.219Z,68.42
2023-03-06T23:46:54.504Z,68.92
2023-03-06T23:49:21.945Z,68.36
2023-03-06T23:51:48.342Z,69.04
2023-03-06T23:54:14.771Z,68.74
2023-03-06T23:56:41.075Z,68.95
2023-03-06T23:59:07.499Z,68.29
